sensor_id;sensor_type;location;lat;lon;timestamp;P1;durP1;ratioP1;P2;durP2;ratioP2
41275;SDS011;27010;47.718;12.912;2023-06-24T00:02:18;2.60;;;1.63;;
41275;SDS011;27010;47.718;12.912;2023-06-24T00:05:21;2.03;;;1.40;;
41275;SDS011;27010;47.718;12.912;2023-06-24T00:08:24;2.33;;;1.60;;
41275;SDS011;27010;47.718;12.912;2023-06-24T00:11:36;2.50;;;1.20;;
41275;SDS011;27010;47.718;12.912;2023-06-24T00:14:38;1.80;;;1.27;;
41275;SDS011;27010;47.718;12.912;2023-06-24T00:17:40;3.07;;;1.27;;
41275;SDS011;27010;47.718;12.912;2023-06-24T00:20:43;1.30;;;1.20;;
41275;SDS011;27010;47.718;12.912;2023-06-24T00:23:45;1.60;;;1.50;;
41275;SDS011;27010;47.718;12.912;2023-06-24T00:26:52;1.57;;;1.30;;
41275;SDS011;27010;47.718;12.912;2023-06-24T00:29:54;1.70;;;1.40;;
41275;SDS011;27010;47.718;12.912;2023-06-24T00:32:57;1.57;;;1.30;;
41275;SDS011;27010;47.718;12.912;2023-06-24T00:35:59;1.70;;;1.40;;
41275;SDS011;27010;47.718;12.912;2023-06-24T00:39:02;1.90;;;1.57;;
41275;SDS011;27010;47.718;12.912;2023-06-24T00:42:05;1.80;;;1.40;;
41275;SDS011;27010;47.718;12.912;2023-06-24T00:45:08;1.97;;;1.50;;
41275;SDS011;27010;47.718;12.912;2023-06-24T00:48:11;2.90;;;1.90;;
41275;SDS011;27010;47.718;12.912;2023-06-24T00:51:13;1.93;;;1.60;;
41275;SDS011;27010;47.718;12.912;2023-06-24T00:54:19;4.30;;;1.57;;
41275;SDS011;27010;47.718;12.912;2023-06-24T00:57:21;2.80;;;1.80;;
41275;SDS011;27010;47.718;12.912;2023-06-24T01:00:27;1.63;;;1.33;;
41275;SDS011;27010;47.718;12.912;2023-06-24T01:03:29;2.23;;;1.80;;
41275;SDS011;27010;47.718;12.912;2023-06-24T01:06:32;2.53;;;1.50;;
41275;SDS011;27010;47.718;12.912;2023-06-24T01:09:37;2.33;;;1.70;;
41275;SDS011;27010;47.718;12.912;2023-06-24T01:12:40;2.23;;;1.40;;
41275;SDS011;27010;47.718;12.912;2023-06-24T01:15:46;3.37;;;1.67;;
41275;SDS011;27010;47.718;12.912;2023-06-24T01:18:51;2.13;;;1.60;;
41275;SDS011;27010;47.718;12.912;2023-06-24T01:32:09;2.07;;;1.60;;
41275;SDS011;27010;47.718;12.912;2023-06-24T01:35:19;1.83;;;1.40;;
41275;SDS011;27010;47.718;12.912;2023-06-24T01:38:29;2.13;;;1.80;;
41275;SDS011;27010;47.718;12.912;2023-06-24T01:41:36;1.93;;;1.67;;
41275;SDS011;27010;47.718;12.912;2023-06-24T01:44:44;3.40;;;1.57;;
41275;SDS011;27010;47.718;12.912;2023-06-24T01:47:47;1.50;;;1.30;;
41275;SDS011;27010;47.718;12.912;2023-06-24T01:54:05;2.60;;;1.80;;
41275;SDS011;27010;47.718;12.912;2023-06-24T01:57:09;1.80;;;1.53;;
41275;SDS011;27010;47.718;12.912;2023-06-24T02:00:12;2.00;;;1.63;;
41275;SDS011;27010;47.718;12.912;2023-06-24T02:03:14;1.60;;;1.50;;
41275;SDS011;27010;47.718;12.912;2023-06-24T02:06:18;3.87;;;1.60;;
41275;SDS011;27010;47.718;12.912;2023-06-24T02:09:22;2.50;;;1.77;;
41275;SDS011;27010;47.718;12.912;2023-06-24T02:12:26;4.43;;;1.90;;
41275;SDS011;27010;47.718;12.912;2023-06-24T02:15:29;2.30;;;1.90;;
41275;SDS011;27010;47.718;12.912;2023-06-24T02:18:32;2.73;;;1.80;;
41275;SDS011;27010;47.718;12.912;2023-06-24T02:21:35;2.07;;;1.77;;
41275;SDS011;27010;47.718;12.912;2023-06-24T02:24:39;2.03;;;1.70;;
41275;SDS011;27010;47.718;12.912;2023-06-24T02:27:43;3.43;;;1.67;;
41275;SDS011;27010;47.718;12.912;2023-06-24T02:30:45;1.63;;;1.53;;
41275;SDS011;27010;47.718;12.912;2023-06-24T02:33:51;4.33;;;1.97;;
41275;SDS011;27010;47.718;12.912;2023-06-24T02:36:53;2.30;;;1.93;;
41275;SDS011;27010;47.718;12.912;2023-06-24T02:39:56;3.03;;;1.70;;
41275;SDS011;27010;47.718;12.912;2023-06-24T02:42:58;4.83;;;1.87;;
41275;SDS011;27010;47.718;12.912;2023-06-24T02:46:01;2.13;;;1.80;;
41275;SDS011;27010;47.718;12.912;2023-06-24T02:49:03;3.80;;;1.93;;
41275;SDS011;27010;47.718;12.912;2023-06-24T02:52:06;2.03;;;1.83;;
41275;SDS011;27010;47.718;12.912;2023-06-24T02:55:08;2.77;;;1.70;;
41275;SDS011;27010;47.718;12.912;2023-06-24T02:58:11;2.17;;;1.97;;
41275;SDS011;27010;47.718;12.912;2023-06-24T03:01:13;2.43;;;1.80;;
41275;SDS011;27010;47.718;12.912;2023-06-24T03:04:17;2.60;;;2.00;;
41275;SDS011;27010;47.718;12.912;2023-06-24T03:07:20;2.63;;;2.13;;
41275;SDS011;27010;47.718;12.912;2023-06-24T03:10:24;2.27;;;2.07;;
41275;SDS011;27010;47.718;12.912;2023-06-24T03:13:26;2.30;;;2.00;;
41275;SDS011;27010;47.718;12.912;2023-06-24T03:16:28;2.40;;;1.90;;
41275;SDS011;27010;47.718;12.912;2023-06-24T03:19:30;5.63;;;2.43;;
41275;SDS011;27010;47.718;12.912;2023-06-24T03:22:32;2.50;;;1.97;;
41275;SDS011;27010;47.718;12.912;2023-06-24T03:25:35;2.17;;;1.97;;
41275;SDS011;27010;47.718;12.912;2023-06-24T03:28:38;2.77;;;2.20;;
41275;SDS011;27010;47.718;12.912;2023-06-24T03:31:40;6.43;;;2.63;;
41275;SDS011;27010;47.718;12.912;2023-06-24T03:34:45;3.00;;;2.23;;
41275;SDS011;27010;47.718;12.912;2023-06-24T03:37:48;2.80;;;2.07;;
41275;SDS011;27010;47.718;12.912;2023-06-24T03:40:50;4.43;;;2.13;;
41275;SDS011;27010;47.718;12.912;2023-06-24T03:43:52;2.73;;;2.00;;
41275;SDS011;27010;47.718;12.912;2023-06-24T03:46:54;2.33;;;2.10;;
41275;SDS011;27010;47.718;12.912;2023-06-24T03:49:58;3.70;;;2.37;;
41275;SDS011;27010;47.718;12.912;2023-06-24T03:53:00;2.20;;;1.90;;
41275;SDS011;27010;47.718;12.912;2023-06-24T03:56:02;2.93;;;2.20;;
41275;SDS011;27010;47.718;12.912;2023-06-24T03:59:04;3.23;;;2.50;;
41275;SDS011;27010;47.718;12.912;2023-06-24T04:02:07;3.50;;;2.50;;
41275;SDS011;27010;47.718;12.912;2023-06-24T04:05:12;3.40;;;2.50;;
41275;SDS011;27010;47.718;12.912;2023-06-24T04:08:14;3.47;;;2.40;;
41275;SDS011;27010;47.718;12.912;2023-06-24T04:11:16;4.90;;;1.97;;
41275;SDS011;27010;47.718;12.912;2023-06-24T04:14:19;3.53;;;2.13;;
41275;SDS011;27010;47.718;12.912;2023-06-24T04:17:21;2.80;;;2.30;;
41275;SDS011;27010;47.718;12.912;2023-06-24T04:20:24;2.60;;;2.10;;
41275;SDS011;27010;47.718;12.912;2023-06-24T04:23:26;3.10;;;2.33;;
41275;SDS011;27010;47.718;12.912;2023-06-24T04:26:28;2.63;;;2.40;;
41275;SDS011;27010;47.718;12.912;2023-06-24T04:29:29;2.97;;;2.23;;
41275;SDS011;27010;47.718;12.912;2023-06-24T04:32:32;3.40;;;2.40;;
41275;SDS011;27010;47.718;12.912;2023-06-24T04:35:35;4.10;;;3.07;;
41275;SDS011;27010;47.718;12.912;2023-06-24T04:38:38;4.47;;;2.97;;
41275;SDS011;27010;47.718;12.912;2023-06-24T04:41:40;3.33;;;2.40;;
41275;SDS011;27010;47.718;12.912;2023-06-24T04:44:42;4.27;;;3.10;;
41275;SDS011;27010;47.718;12.912;2023-06-24T04:47:45;2.87;;;2.50;;
41275;SDS011;27010;47.718;12.912;2023-06-24T04:50:47;4.00;;;3.07;;
41275;SDS011;27010;47.718;12.912;2023-06-24T04:53:49;3.63;;;3.33;;
41275;SDS011;27010;47.718;12.912;2023-06-24T04:56:52;3.93;;;3.37;;
41275;SDS011;27010;47.718;12.912;2023-06-24T04:59:57;5.30;;;3.13;;
41275;SDS011;27010;47.718;12.912;2023-06-24T05:02:59;3.00;;;2.70;;
41275;SDS011;27010;47.718;12.912;2023-06-24T05:06:02;2.73;;;2.43;;
41275;SDS011;27010;47.718;12.912;2023-06-24T05:09:04;2.50;;;2.30;;
41275;SDS011;27010;47.718;12.912;2023-06-24T05:12:06;2.93;;;2.63;;
41275;SDS011;27010;47.718;12.912;2023-06-24T05:15:09;4.17;;;2.77;;
41275;SDS011;27010;47.718;12.912;2023-06-24T05:18:12;2.60;;;2.40;;
41275;SDS011;27010;47.718;12.912;2023-06-24T05:21:14;3.87;;;2.20;;
41275;SDS011;27010;47.718;12.912;2023-06-24T05:24:17;2.23;;;2.03;;
41275;SDS011;27010;47.718;12.912;2023-06-24T05:27:19;2.87;;;2.50;;
41275;SDS011;27010;47.718;12.912;2023-06-24T05:30:21;3.03;;;2.30;;
41275;SDS011;27010;47.718;12.912;2023-06-24T05:33:23;3.60;;;2.30;;
41275;SDS011;27010;47.718;12.912;2023-06-24T05:36:25;3.97;;;2.43;;
41275;SDS011;27010;47.718;12.912;2023-06-24T05:39:27;3.03;;;2.30;;
41275;SDS011;27010;47.718;12.912;2023-06-24T05:42:29;4.63;;;2.80;;
41275;SDS011;27010;47.718;12.912;2023-06-24T05:45:31;5.17;;;2.70;;
41275;SDS011;27010;47.718;12.912;2023-06-24T05:48:33;4.93;;;2.80;;
41275;SDS011;27010;47.718;12.912;2023-06-24T05:51:36;3.23;;;2.47;;
41275;SDS011;27010;47.718;12.912;2023-06-24T05:54:38;3.80;;;2.93;;
41275;SDS011;27010;47.718;12.912;2023-06-24T05:57:40;5.60;;;2.43;;
41275;SDS011;27010;47.718;12.912;2023-06-24T06:00:42;4.57;;;3.00;;
41275;SDS011;27010;47.718;12.912;2023-06-24T06:03:44;2.67;;;2.33;;
41275;SDS011;27010;47.718;12.912;2023-06-24T06:06:46;3.67;;;2.90;;
41275;SDS011;27010;47.718;12.912;2023-06-24T06:09:48;4.57;;;2.90;;
41275;SDS011;27010;47.718;12.912;2023-06-24T06:12:51;2.40;;;2.20;;
41275;SDS011;27010;47.718;12.912;2023-06-24T06:15:55;2.93;;;2.40;;
41275;SDS011;27010;47.718;12.912;2023-06-24T06:18:57;3.13;;;2.43;;
41275;SDS011;27010;47.718;12.912;2023-06-24T06:21:59;3.17;;;2.60;;
41275;SDS011;27010;47.718;12.912;2023-06-24T06:25:01;3.83;;;2.37;;
41275;SDS011;27010;47.718;12.912;2023-06-24T06:28:04;3.03;;;2.73;;
41275;SDS011;27010;47.718;12.912;2023-06-24T06:31:06;3.33;;;3.00;;
41275;SDS011;27010;47.718;12.912;2023-06-24T06:34:08;2.87;;;2.40;;
41275;SDS011;27010;47.718;12.912;2023-06-24T06:37:10;3.80;;;2.10;;
41275;SDS011;27010;47.718;12.912;2023-06-24T06:40:12;2.83;;;2.20;;
41275;SDS011;27010;47.718;12.912;2023-06-24T06:43:14;2.40;;;2.20;;
41275;SDS011;27010;47.718;12.912;2023-06-24T06:46:17;2.83;;;2.20;;
41275;SDS011;27010;47.718;12.912;2023-06-24T06:49:19;4.53;;;2.47;;
41275;SDS011;27010;47.718;12.912;2023-06-24T06:52:21;2.57;;;2.33;;
41275;SDS011;27010;47.718;12.912;2023-06-24T06:55:23;2.70;;;2.20;;
41275;SDS011;27010;47.718;12.912;2023-06-24T06:58:26;2.43;;;2.00;;
41275;SDS011;27010;47.718;12.912;2023-06-24T07:01:28;3.90;;;2.03;;
41275;SDS011;27010;47.718;12.912;2023-06-24T07:04:30;3.67;;;2.00;;
41275;SDS011;27010;47.718;12.912;2023-06-24T07:07:33;3.20;;;2.30;;
41275;SDS011;27010;47.718;12.912;2023-06-24T07:10:34;4.40;;;2.13;;
41275;SDS011;27010;47.718;12.912;2023-06-24T07:13:36;5.53;;;2.47;;
41275;SDS011;27010;47.718;12.912;2023-06-24T07:16:39;2.60;;;2.40;;
41275;SDS011;27010;47.718;12.912;2023-06-24T07:19:41;2.73;;;1.80;;
41275;SDS011;27010;47.718;12.912;2023-06-24T07:22:43;3.10;;;2.20;;
41275;SDS011;27010;47.718;12.912;2023-06-24T07:25:45;4.33;;;2.20;;
41275;SDS011;27010;47.718;12.912;2023-06-24T07:28:47;2.80;;;2.50;;
41275;SDS011;27010;47.718;12.912;2023-06-24T07:32:04;2.40;;;1.93;;
41275;SDS011;27010;47.718;12.912;2023-06-24T07:35:08;2.93;;;2.20;;
41275;SDS011;27010;47.718;12.912;2023-06-24T07:38:13;2.77;;;2.00;;
41275;SDS011;27010;47.718;12.912;2023-06-24T07:41:16;4.53;;;2.37;;
41275;SDS011;27010;47.718;12.912;2023-06-24T07:44:18;2.77;;;2.20;;
41275;SDS011;27010;47.718;12.912;2023-06-24T07:47:21;2.87;;;2.00;;
41275;SDS011;27010;47.718;12.912;2023-06-24T07:50:23;2.20;;;1.63;;
41275;SDS011;27010;47.718;12.912;2023-06-24T07:53:26;2.87;;;1.73;;
41275;SDS011;27010;47.718;12.912;2023-06-24T07:56:28;3.53;;;1.97;;
41275;SDS011;27010;47.718;12.912;2023-06-24T07:59:30;3.97;;;2.13;;
41275;SDS011;27010;47.718;12.912;2023-06-24T08:02:32;2.20;;;2.00;;
41275;SDS011;27010;47.718;12.912;2023-06-24T08:05:35;3.20;;;2.40;;
41275;SDS011;27010;47.718;12.912;2023-06-24T08:08:37;2.37;;;2.17;;
41275;SDS011;27010;47.718;12.912;2023-06-24T08:11:39;2.60;;;2.17;;
41275;SDS011;27010;47.718;12.912;2023-06-24T08:14:41;3.23;;;1.97;;
41275;SDS011;27010;47.718;12.912;2023-06-24T08:17:44;2.33;;;1.77;;
41275;SDS011;27010;47.718;12.912;2023-06-24T08:20:46;3.30;;;2.13;;
41275;SDS011;27010;47.718;12.912;2023-06-24T08:23:48;2.20;;;1.83;;
41275;SDS011;27010;47.718;12.912;2023-06-24T08:26:51;2.77;;;1.90;;
41275;SDS011;27010;47.718;12.912;2023-06-24T08:29:54;3.13;;;1.80;;
41275;SDS011;27010;47.718;12.912;2023-06-24T08:32:56;2.17;;;1.97;;
41275;SDS011;27010;47.718;12.912;2023-06-24T08:35:59;2.87;;;1.93;;
41275;SDS011;27010;47.718;12.912;2023-06-24T08:39:01;1.60;;;1.50;;
41275;SDS011;27010;47.718;12.912;2023-06-24T08:42:04;2.13;;;1.57;;
41275;SDS011;27010;47.718;12.912;2023-06-24T08:45:06;2.00;;;1.70;;
41275;SDS011;27010;47.718;12.912;2023-06-24T08:48:08;2.77;;;1.80;;
41275;SDS011;27010;47.718;12.912;2023-06-24T08:51:11;2.57;;;1.70;;
41275;SDS011;27010;47.718;12.912;2023-06-24T08:54:15;1.67;;;1.57;;
41275;SDS011;27010;47.718;12.912;2023-06-24T08:57:18;3.00;;;1.70;;
41275;SDS011;27010;47.718;12.912;2023-06-24T09:00:21;2.20;;;1.87;;
41275;SDS011;27010;47.718;12.912;2023-06-24T09:03:23;2.67;;;1.53;;
41275;SDS011;27010;47.718;12.912;2023-06-24T09:06:25;2.30;;;1.90;;
41275;SDS011;27010;47.718;12.912;2023-06-24T09:09:27;2.30;;;1.83;;
41275;SDS011;27010;47.718;12.912;2023-06-24T09:12:34;4.40;;;2.80;;
41275;SDS011;27010;47.718;12.912;2023-06-24T09:15:36;1.90;;;1.70;;
41275;SDS011;27010;47.718;12.912;2023-06-24T09:18:39;1.93;;;1.53;;
41275;SDS011;27010;47.718;12.912;2023-06-24T09:21:42;2.10;;;1.60;;
41275;SDS011;27010;47.718;12.912;2023-06-24T09:24:48;2.77;;;1.97;;
41275;SDS011;27010;47.718;12.912;2023-06-24T09:27:51;2.23;;;1.87;;
41275;SDS011;27010;47.718;12.912;2023-06-24T09:31:07;3.03;;;2.17;;
41275;SDS011;27010;47.718;12.912;2023-06-24T09:34:20;5.00;;;1.88;;
41275;SDS011;27010;47.718;12.912;2023-06-24T09:37:23;7.53;;;2.13;;
41275;SDS011;27010;47.718;12.912;2023-06-24T09:40:34;2.95;;;1.85;;
41275;SDS011;27010;47.718;12.912;2023-06-24T09:43:39;2.20;;;1.90;;
41275;SDS011;27010;47.718;12.912;2023-06-24T09:46:46;2.20;;;2.00;;
41275;SDS011;27010;47.718;12.912;2023-06-24T09:49:49;2.38;;;1.73;;
41275;SDS011;27010;47.718;12.912;2023-06-24T09:52:51;2.58;;;1.85;;
41275;SDS011;27010;47.718;12.912;2023-06-24T09:55:54;1.85;;;1.70;;
41275;SDS011;27010;47.718;12.912;2023-06-24T09:58:56;1.73;;;1.60;;
41275;SDS011;27010;47.718;12.912;2023-06-24T10:01:59;1.75;;;1.60;;
41275;SDS011;27010;47.718;12.912;2023-06-24T10:05:02;1.55;;;1.45;;
41275;SDS011;27010;47.718;12.912;2023-06-24T10:08:05;2.72;;;1.40;;
41275;SDS011;27010;47.718;12.912;2023-06-24T10:11:07;1.58;;;1.48;;
41275;SDS011;27010;47.718;12.912;2023-06-24T10:14:09;2.13;;;1.70;;
41275;SDS011;27010;47.718;12.912;2023-06-24T10:17:11;2.47;;;2.10;;
41275;SDS011;27010;47.718;12.912;2023-06-24T10:20:14;2.40;;;1.73;;
41275;SDS011;27010;47.718;12.912;2023-06-24T10:23:30;1.60;;;1.45;;
41275;SDS011;27010;47.718;12.912;2023-06-24T10:26:36;2.83;;;2.15;;
41275;SDS011;27010;47.718;12.912;2023-06-24T10:29:38;1.95;;;1.60;;
41275;SDS011;27010;47.718;12.912;2023-06-24T10:32:41;2.75;;;1.60;;
41275;SDS011;27010;47.718;12.912;2023-06-24T10:35:47;3.05;;;1.90;;
41275;SDS011;27010;47.718;12.912;2023-06-24T10:38:55;3.00;;;1.63;;
41275;SDS011;27010;47.718;12.912;2023-06-24T10:45:28;2.72;;;1.90;;
41275;SDS011;27010;47.718;12.912;2023-06-24T10:48:30;1.70;;;1.60;;
41275;SDS011;27010;47.718;12.912;2023-06-24T10:51:33;1.60;;;1.48;;
41275;SDS011;27010;47.718;12.912;2023-06-24T10:54:39;2.22;;;1.60;;
41275;SDS011;27010;47.718;12.912;2023-06-24T10:57:41;1.60;;;1.50;;
41275;SDS011;27010;47.718;12.912;2023-06-24T11:00:53;2.33;;;1.27;;
41275;SDS011;27010;47.718;12.912;2023-06-24T11:04:08;1.65;;;1.55;;
41275;SDS011;27010;47.718;12.912;2023-06-24T11:07:13;2.25;;;1.65;;
41275;SDS011;27010;47.718;12.912;2023-06-24T11:10:15;2.20;;;1.73;;
41275;SDS011;27010;47.718;12.912;2023-06-24T11:13:19;4.63;;;1.50;;
41275;SDS011;27010;47.718;12.912;2023-06-24T11:16:22;3.03;;;1.88;;
41275;SDS011;27010;47.718;12.912;2023-06-24T11:19:24;2.50;;;1.60;;
41275;SDS011;27010;47.718;12.912;2023-06-24T11:22:26;2.05;;;1.73;;
41275;SDS011;27010;47.718;12.912;2023-06-24T11:25:29;2.25;;;1.65;;
41275;SDS011;27010;47.718;12.912;2023-06-24T11:28:32;3.33;;;1.80;;
41275;SDS011;27010;47.718;12.912;2023-06-24T11:31:34;2.25;;;1.70;;
41275;SDS011;27010;47.718;12.912;2023-06-24T11:34:37;2.00;;;1.80;;
41275;SDS011;27010;47.718;12.912;2023-06-24T11:37:43;1.92;;;1.60;;
41275;SDS011;27010;47.718;12.912;2023-06-24T11:40:50;2.22;;;1.48;;
41275;SDS011;27010;47.718;12.912;2023-06-24T11:43:52;2.00;;;1.80;;
41275;SDS011;27010;47.718;12.912;2023-06-24T11:47:03;2.20;;;1.85;;
41275;SDS011;27010;47.718;12.912;2023-06-24T11:50:08;2.28;;;1.75;;
41275;SDS011;27010;47.718;12.912;2023-06-24T11:53:11;1.92;;;1.63;;
41275;SDS011;27010;47.718;12.912;2023-06-24T11:56:14;2.92;;;2.00;;
41275;SDS011;27010;47.718;12.912;2023-06-24T11:59:17;3.47;;;1.77;;
41275;SDS011;27010;47.718;12.912;2023-06-24T12:02:21;2.35;;;1.73;;
41275;SDS011;27010;47.718;12.912;2023-06-24T12:05:24;6.18;;;2.63;;
41275;SDS011;27010;47.718;12.912;2023-06-24T12:08:30;4.60;;;2.53;;
41275;SDS011;27010;47.718;12.912;2023-06-24T12:11:52;2.97;;;1.83;;
41275;SDS011;27010;47.718;12.912;2023-06-24T12:14:54;3.67;;;1.90;;
41275;SDS011;27010;47.718;12.912;2023-06-24T12:17:57;3.45;;;2.15;;
41275;SDS011;27010;47.718;12.912;2023-06-24T12:20:59;2.00;;;1.80;;
41275;SDS011;27010;47.718;12.912;2023-06-24T12:24:01;2.42;;;1.88;;
41275;SDS011;27010;47.718;12.912;2023-06-24T12:27:04;2.45;;;1.83;;
41275;SDS011;27010;47.718;12.912;2023-06-24T12:30:15;3.78;;;1.80;;
41275;SDS011;27010;47.718;12.912;2023-06-24T12:33:18;2.20;;;1.77;;
41275;SDS011;27010;47.718;12.912;2023-06-24T12:36:22;2.83;;;1.83;;
41275;SDS011;27010;47.718;12.912;2023-06-24T12:39:24;2.85;;;2.10;;
41275;SDS011;27010;47.718;12.912;2023-06-24T12:42:26;4.00;;;2.08;;
41275;SDS011;27010;47.718;12.912;2023-06-24T12:45:29;4.80;;;2.40;;
41275;SDS011;27010;47.718;12.912;2023-06-24T12:48:31;2.13;;;1.92;;
41275;SDS011;27010;47.718;12.912;2023-06-24T12:51:33;3.10;;;1.88;;
41275;SDS011;27010;47.718;12.912;2023-06-24T12:54:35;2.55;;;1.90;;
41275;SDS011;27010;47.718;12.912;2023-06-24T12:57:38;2.20;;;1.95;;
41275;SDS011;27010;47.718;12.912;2023-06-24T13:00:40;2.13;;;1.90;;
41275;SDS011;27010;47.718;12.912;2023-06-24T13:03:42;2.83;;;2.00;;
41275;SDS011;27010;47.718;12.912;2023-06-24T13:06:45;1.95;;;1.67;;
41275;SDS011;27010;47.718;12.912;2023-06-24T13:09:48;1.80;;;1.70;;
41275;SDS011;27010;47.718;12.912;2023-06-24T13:12:50;3.05;;;1.60;;
41275;SDS011;27010;47.718;12.912;2023-06-24T13:15:54;2.42;;;1.88;;
41275;SDS011;27010;47.718;12.912;2023-06-24T13:18:56;2.13;;;1.90;;
41275;SDS011;27010;47.718;12.912;2023-06-24T13:21:58;2.45;;;1.90;;
41275;SDS011;27010;47.718;12.912;2023-06-24T13:25:01;3.28;;;2.10;;
41275;SDS011;27010;47.718;12.912;2023-06-24T13:28:03;2.35;;;2.05;;
41275;SDS011;27010;47.718;12.912;2023-06-24T13:31:05;4.20;;;1.85;;
41275;SDS011;27010;47.718;12.912;2023-06-24T13:34:10;2.00;;;1.67;;
41275;SDS011;27010;47.718;12.912;2023-06-24T13:37:12;1.77;;;1.63;;
41275;SDS011;27010;47.718;12.912;2023-06-24T13:40:17;3.63;;;2.40;;
41275;SDS011;27010;47.718;12.912;2023-06-24T13:43:19;2.17;;;1.90;;
41275;SDS011;27010;47.718;12.912;2023-06-24T13:46:21;2.13;;;1.73;;
41275;SDS011;27010;47.718;12.912;2023-06-24T13:49:24;2.45;;;1.92;;
41275;SDS011;27010;47.718;12.912;2023-06-24T13:52:27;2.33;;;2.03;;
41275;SDS011;27010;47.718;12.912;2023-06-24T13:55:29;2.00;;;1.80;;
41275;SDS011;27010;47.718;12.912;2023-06-24T13:58:32;2.67;;;2.00;;
41275;SDS011;27010;47.718;12.912;2023-06-24T14:01:35;2.67;;;1.77;;
41275;SDS011;27010;47.718;12.912;2023-06-24T14:04:38;2.20;;;1.90;;
41275;SDS011;27010;47.718;12.912;2023-06-24T14:07:43;2.72;;;1.98;;
41275;SDS011;27010;47.718;12.912;2023-06-24T14:10:48;2.92;;;2.10;;
41275;SDS011;27010;47.718;12.912;2023-06-24T14:13:50;2.60;;;2.10;;
41275;SDS011;27010;47.718;12.912;2023-06-24T14:16:55;2.28;;;2.08;;
41275;SDS011;27010;47.718;12.912;2023-06-24T14:19:57;3.00;;;1.90;;
41275;SDS011;27010;47.718;12.912;2023-06-24T14:22:59;4.45;;;2.40;;
41275;SDS011;27010;47.718;12.912;2023-06-24T14:26:01;2.95;;;1.88;;
41275;SDS011;27010;47.718;12.912;2023-06-24T14:29:04;2.20;;;1.85;;
41275;SDS011;27010;47.718;12.912;2023-06-24T14:32:07;2.17;;;1.88;;
41275;SDS011;27010;47.718;12.912;2023-06-24T14:35:10;2.50;;;2.00;;
41275;SDS011;27010;47.718;12.912;2023-06-24T14:38:12;2.50;;;2.15;;
41275;SDS011;27010;47.718;12.912;2023-06-24T14:41:15;2.65;;;1.95;;
41275;SDS011;27010;47.718;12.912;2023-06-24T14:44:17;2.13;;;1.90;;
41275;SDS011;27010;47.718;12.912;2023-06-24T14:47:19;2.53;;;2.13;;
41275;SDS011;27010;47.718;12.912;2023-06-24T14:50:22;4.32;;;2.42;;
41275;SDS011;27010;47.718;12.912;2023-06-24T14:53:24;2.17;;;1.98;;
41275;SDS011;27010;47.718;12.912;2023-06-24T14:56:26;2.88;;;2.03;;
41275;SDS011;27010;47.718;12.912;2023-06-24T14:59:28;2.40;;;2.20;;
41275;SDS011;27010;47.718;12.912;2023-06-24T15:02:30;2.92;;;1.65;;
41275;SDS011;27010;47.718;12.912;2023-06-24T15:05:32;2.42;;;2.13;;
41275;SDS011;27010;47.718;12.912;2023-06-24T15:08:36;5.38;;;2.35;;
41275;SDS011;27010;47.718;12.912;2023-06-24T15:11:38;2.35;;;2.15;;
41275;SDS011;27010;47.718;12.912;2023-06-24T15:14:40;2.05;;;1.85;;
41275;SDS011;27010;47.718;12.912;2023-06-24T15:17:42;2.60;;;2.40;;
41275;SDS011;27010;47.718;12.912;2023-06-24T15:20:47;3.85;;;2.15;;
41275;SDS011;27010;47.718;12.912;2023-06-24T15:23:49;3.22;;;2.05;;
41275;SDS011;27010;47.718;12.912;2023-06-24T15:26:52;2.47;;;2.25;;
41275;SDS011;27010;47.718;12.912;2023-06-24T15:29:54;2.40;;;2.20;;
41275;SDS011;27010;47.718;12.912;2023-06-24T15:32:56;2.97;;;1.98;;
41275;SDS011;27010;47.718;12.912;2023-06-24T15:35:59;2.75;;;2.50;;
41275;SDS011;27010;47.718;12.912;2023-06-24T15:39:01;2.80;;;2.40;;
41275;SDS011;27010;47.718;12.912;2023-06-24T15:42:05;4.15;;;2.20;;
41275;SDS011;27010;47.718;12.912;2023-06-24T15:45:08;2.45;;;2.20;;
41275;SDS011;27010;47.718;12.912;2023-06-24T15:48:10;3.15;;;2.83;;
41275;SDS011;27010;47.718;12.912;2023-06-24T15:51:12;2.70;;;2.42;;
41275;SDS011;27010;47.718;12.912;2023-06-24T15:54:14;2.97;;;2.40;;
41275;SDS011;27010;47.718;12.912;2023-06-24T15:57:17;2.40;;;2.20;;
41275;SDS011;27010;47.718;12.912;2023-06-24T16:00:19;2.63;;;2.35;;
41275;SDS011;27010;47.718;12.912;2023-06-24T16:03:21;2.88;;;2.58;;
41275;SDS011;27010;47.718;12.912;2023-06-24T16:06:31;3.03;;;2.40;;
41275;SDS011;27010;47.718;12.912;2023-06-24T16:09:37;2.20;;;2.00;;
41275;SDS011;27010;47.718;12.912;2023-06-24T16:12:39;2.53;;;2.33;;
41275;SDS011;27010;47.718;12.912;2023-06-24T16:15:41;2.45;;;2.25;;
41275;SDS011;27010;47.718;12.912;2023-06-24T16:18:43;2.38;;;1.92;;
41275;SDS011;27010;47.718;12.912;2023-06-24T16:21:46;3.63;;;2.97;;
41275;SDS011;27010;47.718;12.912;2023-06-24T16:24:48;3.75;;;3.10;;
41275;SDS011;27010;47.718;12.912;2023-06-24T16:27:53;3.17;;;2.88;;
41275;SDS011;27010;47.718;12.912;2023-06-24T16:30:55;2.63;;;2.42;;
41275;SDS011;27010;47.718;12.912;2023-06-24T16:33:58;2.22;;;2.03;;
41275;SDS011;27010;47.718;12.912;2023-06-24T16:37:00;3.35;;;2.67;;
41275;SDS011;27010;47.718;12.912;2023-06-24T16:40:03;2.65;;;2.40;;
41275;SDS011;27010;47.718;12.912;2023-06-24T16:43:06;2.83;;;2.47;;
41275;SDS011;27010;47.718;12.912;2023-06-24T16:46:09;2.33;;;2.10;;
41275;SDS011;27010;47.718;12.912;2023-06-24T16:49:11;2.90;;;2.60;;
41275;SDS011;27010;47.718;12.912;2023-06-24T16:52:13;5.90;;;2.45;;
41275;SDS011;27010;47.718;12.912;2023-06-24T16:55:15;3.97;;;2.65;;
41275;SDS011;27010;47.718;12.912;2023-06-24T16:58:18;2.47;;;2.28;;
41275;SDS011;27010;47.718;12.912;2023-06-24T17:01:20;2.63;;;2.38;;
41275;SDS011;27010;47.718;12.912;2023-06-24T17:04:22;3.70;;;2.40;;
41275;SDS011;27010;47.718;12.912;2023-06-24T17:07:24;2.75;;;2.35;;
41275;SDS011;27010;47.718;12.912;2023-06-24T17:10:26;3.88;;;2.50;;
41275;SDS011;27010;47.718;12.912;2023-06-24T17:13:28;3.05;;;2.53;;
41275;SDS011;27010;47.718;12.912;2023-06-24T17:16:30;4.05;;;2.63;;
41275;SDS011;27010;47.718;12.912;2023-06-24T17:19:32;5.40;;;2.85;;
41275;SDS011;27010;47.718;12.912;2023-06-24T17:22:35;2.95;;;2.65;;
41275;SDS011;27010;47.718;12.912;2023-06-24T17:25:36;2.90;;;2.28;;
41275;SDS011;27010;47.718;12.912;2023-06-24T17:28:39;2.67;;;2.20;;
41275;SDS011;27010;47.718;12.912;2023-06-24T17:31:43;2.40;;;2.20;;
41275;SDS011;27010;47.718;12.912;2023-06-24T17:34:46;2.15;;;1.95;;
41275;SDS011;27010;47.718;12.912;2023-06-24T17:37:48;3.47;;;2.42;;
41275;SDS011;27010;47.718;12.912;2023-06-24T17:40:50;2.83;;;2.50;;
41275;SDS011;27010;47.718;12.912;2023-06-24T17:43:52;4.53;;;2.50;;
41275;SDS011;27010;47.718;12.912;2023-06-24T17:46:54;2.90;;;2.40;;
41275;SDS011;27010;47.718;12.912;2023-06-24T17:49:56;3.13;;;2.13;;
41275;SDS011;27010;47.718;12.912;2023-06-24T17:53:01;3.65;;;2.75;;
41275;SDS011;27010;47.718;12.912;2023-06-24T17:56:04;4.32;;;2.63;;
41275;SDS011;27010;47.718;12.912;2023-06-24T17:59:07;2.40;;;2.20;;
41275;SDS011;27010;47.718;12.912;2023-06-24T18:02:09;2.90;;;2.60;;
41275;SDS011;27010;47.718;12.912;2023-06-24T18:05:11;3.85;;;2.50;;
41275;SDS011;27010;47.718;12.912;2023-06-24T18:08:14;4.05;;;2.88;;
41275;SDS011;27010;47.718;12.912;2023-06-24T18:11:16;3.28;;;2.40;;
41275;SDS011;27010;47.718;12.912;2023-06-24T18:14:18;3.28;;;2.60;;
41275;SDS011;27010;47.718;12.912;2023-06-24T18:17:20;4.30;;;2.28;;
41275;SDS011;27010;47.718;12.912;2023-06-24T18:20:23;2.53;;;2.10;;
41275;SDS011;27010;47.718;12.912;2023-06-24T18:23:25;5.78;;;2.45;;